createdAt,value
2018-08-28T00:04:05.890Z,16.30
2018-08-28T00:09:10.336Z,16.30
2018-08-28T00:14:14.922Z,16.20
2018-08-28T00:19:19.345Z,16.30
2018-08-28T00:24:24.014Z,16.20
2018-08-28T00:29:28.519Z,16.30
2018-08-28T00:34:33.101Z,16.20
2018-08-28T00:39:37.589Z,16.30
2018-08-28T00:44:42.018Z,16.20
2018-08-28T00:49:47.037Z,16.20
2018-08-28T00:54:51.463Z,16.20
2018-08-28T00:59:56.028Z,16.20
2018-08-28T01:05:00.878Z,16.10
2018-08-28T01:10:05.701Z,16.10
2018-08-28T01:15:10.240Z,16.00
2018-08-28T01:20:14.872Z,15.90
2018-08-28T01:25:19.453Z,15.90
2018-08-28T01:30:29.174Z,15.90
2018-08-28T01:35:33.607Z,15.90
2018-08-28T01:40:38.173Z,15.90
2018-08-28T01:45:43.234Z,15.80
2018-08-28T01:50:48.059Z,15.90
2018-08-28T01:55:52.623Z,15.90
2018-08-28T02:00:57.125Z,15.80
2018-08-28T02:06:01.659Z,15.80
2018-08-28T02:11:06.238Z,15.80
2018-08-28T02:16:10.983Z,15.70
2018-08-28T02:21:15.488Z,15.80
2018-08-28T02:26:20.096Z,15.70
2018-08-28T02:31:24.999Z,15.80
2018-08-28T02:36:30.066Z,15.80
2018-08-28T02:41:34.452Z,15.80
2018-08-28T02:46:39.320Z,15.80
2018-08-28T02:51:44.325Z,15.80
2018-08-28T02:56:48.715Z,15.70
2018-08-28T03:01:53.259Z,15.70
2018-08-28T03:06:58.434Z,15.70
2018-08-28T03:12:04.439Z,15.70
2018-08-28T03:17:08.882Z,15.80
2018-08-28T03:22:13.745Z,15.80
2018-08-28T03:27:18.276Z,15.80
2018-08-28T03:32:22.781Z,15.80
2018-08-28T03:37:27.346Z,15.80
2018-08-28T03:42:31.929Z,15.70
2018-08-28T03:47:36.373Z,15.70
2018-08-28T03:52:40.965Z,15.70
2018-08-28T03:57:45.469Z,15.70
2018-08-28T04:02:50.029Z,15.70
2018-08-28T04:07:54.575Z,15.70
2018-08-28T04:12:59.319Z,15.70
2018-08-28T04:18:04.125Z,15.60
2018-08-28T04:23:08.892Z,15.70
2018-08-28T04:28:13.534Z,15.70
2018-08-28T04:33:18.996Z,15.60
2018-08-28T04:38:23.584Z,15.60
2018-08-28T04:43:28.448Z,15.60
2018-08-28T04:48:33.316Z,15.60
2018-08-28T04:53:37.753Z,15.70
2018-08-28T04:58:42.301Z,15.70
2018-08-28T05:03:47.478Z,15.70
2018-08-28T05:08:52.007Z,15.90
2018-08-28T05:13:56.313Z,15.90
2018-08-28T05:19:00.588Z,16.00
2018-08-28T05:24:05.084Z,16.10
2018-08-28T05:29:09.568Z,16.20
2018-08-28T05:34:13.892Z,16.30
2018-08-28T05:39:18.861Z,16.30
2018-08-28T05:44:23.746Z,16.50
2018-08-28T05:49:28.724Z,16.50
2018-08-28T05:54:33.250Z,16.60
2018-08-28T05:59:37.664Z,16.80
2018-08-28T06:04:42.008Z,16.90
2018-08-28T06:09:46.475Z,17.10
2018-08-28T06:14:51.642Z,17.20
2018-08-28T06:19:56.296Z,17.20
2018-08-28T06:25:01.612Z,17.30
2018-08-28T06:30:06.281Z,17.40
2018-08-28T06:35:10.761Z,17.50
2018-08-28T06:40:15.124Z,17.60
2018-08-28T06:45:19.453Z,17.70
2018-08-28T06:50:23.673Z,17.80
2018-08-28T06:55:27.985Z,17.90
2018-08-28T07:00:32.442Z,17.90
2018-08-28T07:05:37.029Z,18.10
2018-08-28T07:10:41.573Z,18.20
2018-08-28T07:15:47.475Z,18.30
2018-08-28T07:20:52.044Z,18.40
2018-08-28T07:25:56.496Z,18.40
2018-08-28T07:31:00.903Z,18.60
2018-08-28T07:36:05.248Z,19.00
2018-08-28T07:41:09.685Z,19.20
2018-08-28T07:46:14.005Z,19.20
2018-08-28T07:51:18.449Z,19.00
2018-08-28T07:56:22.993Z,19.00
2018-08-28T08:01:27.433Z,19.00
2018-08-28T08:06:32.281Z,19.20
2018-08-28T08:11:36.668Z,19.50
2018-08-28T08:16:41.172Z,19.60
2018-08-28T08:21:45.639Z,19.80
2018-08-28T08:26:50.161Z,19.90
2018-08-28T08:31:54.748Z,19.50
2018-08-28T08:37:02.511Z,19.50
2018-08-28T08:42:07.261Z,19.60
2018-08-28T08:47:11.800Z,19.70
2018-08-28T08:52:16.403Z,20.00
2018-08-28T08:57:21.000Z,20.30
2018-08-28T09:02:25.512Z,20.60
2018-08-28T09:07:30.009Z,20.80
2018-08-28T09:12:34.568Z,20.50
2018-08-28T09:17:39.247Z,20.70
2018-08-28T09:22:44.212Z,20.90
2018-08-28T09:27:48.857Z,21.10
2018-08-28T09:32:53.386Z,21.50
2018-08-28T09:37:57.811Z,21.80
2018-08-28T09:43:02.187Z,22.20
2018-08-28T09:48:06.745Z,22.20
2018-08-28T09:53:11.619Z,21.90
2018-08-28T09:58:16.034Z,22.00
2018-08-28T10:03:20.615Z,22.70
2018-08-28T10:08:25.196Z,23.30
2018-08-28T10:13:29.962Z,23.90
2018-08-28T10:18:34.407Z,23.50
2018-08-28T10:23:39.586Z,23.30
2018-08-28T10:28:44.156Z,23.00
2018-08-28T10:33:48.772Z,22.70
2018-08-28T10:38:53.287Z,21.60
2018-08-28T10:43:57.829Z,21.10
2018-08-28T10:49:02.372Z,21.20
2018-08-28T10:54:06.945Z,21.70
2018-08-28T10:59:11.339Z,22.00
2018-08-28T11:04:16.614Z,22.10
2018-08-28T11:09:21.060Z,22.10
2018-08-28T11:14:26.576Z,23.00
2018-08-28T11:19:31.151Z,23.20
2018-08-28T11:24:35.889Z,23.90
2018-08-28T11:29:40.335Z,24.40
2018-08-28T11:34:44.606Z,24.00
2018-08-28T11:39:49.211Z,24.00
2018-08-28T11:44:53.550Z,24.30
2018-08-28T11:49:57.897Z,24.80
2018-08-28T11:55:02.253Z,25.50
2018-08-28T12:00:08.114Z,25.50
2018-08-28T12:05:14.196Z,25.30
2018-08-28T12:10:19.209Z,25.40
2018-08-28T12:15:23.804Z,25.90
2018-08-28T12:20:28.856Z,26.30
2018-08-28T12:25:33.926Z,26.70
2018-08-28T12:30:38.356Z,27.50
2018-08-28T12:35:42.817Z,28.80
2018-08-28T12:40:47.355Z,29.90
2018-08-28T12:45:51.919Z,32.00
2018-08-28T12:50:56.304Z,33.10
2018-08-28T12:56:00.652Z,34.60
2018-08-28T13:01:05.088Z,36.50
2018-08-28T13:06:09.813Z,38.10
2018-08-28T13:11:14.204Z,39.00
2018-08-28T13:16:18.544Z,39.90
2018-08-28T13:21:23.402Z,41.00
2018-08-28T13:26:27.727Z,41.90
2018-08-28T13:31:32.884Z,43.10
2018-08-28T13:36:37.330Z,44.50
2018-08-28T13:41:41.679Z,45.50
2018-08-28T13:46:46.020Z,45.70
2018-08-28T13:51:50.376Z,45.10
2018-08-28T13:56:54.666Z,45.30
2018-08-28T14:01:59.145Z,45.40
2018-08-28T14:07:03.846Z,45.70
2018-08-28T14:12:08.356Z,46.10
2018-08-28T14:17:12.777Z,43.40
2018-08-28T14:22:18.190Z,43.40
2018-08-28T14:27:22.672Z,43.40
2018-08-28T14:32:27.065Z,44.50
2018-08-28T14:37:31.471Z,46.10
2018-08-28T14:42:36.038Z,47.50
2018-08-28T14:47:40.416Z,46.80
2018-08-28T14:52:44.810Z,46.40
2018-08-28T14:57:49.337Z,47.30
2018-08-28T15:02:53.675Z,47.10
2018-08-28T15:07:58.256Z,47.00
2018-08-28T15:13:02.687Z,47.60
2018-08-28T15:18:07.835Z,48.00
2018-08-28T15:23:12.371Z,48.40
2018-08-28T15:28:16.706Z,48.40
2018-08-28T15:33:21.150Z,48.30
2018-08-28T15:38:25.634Z,48.00
2018-08-28T15:43:30.319Z,47.60
2018-08-28T15:48:34.768Z,47.60
2018-08-28T15:53:39.289Z,47.50
2018-08-28T15:58:43.533Z,47.00
2018-08-28T16:03:47.903Z,46.50
2018-08-28T16:08:52.273Z,46.00
2018-08-28T16:13:56.586Z,45.70
2018-08-28T16:19:00.924Z,45.30
2018-08-28T16:24:05.240Z,44.30
2018-08-28T16:29:09.923Z,43.20
2018-08-28T16:34:14.371Z,42.40
2018-08-28T16:39:18.708Z,42.00
2018-08-28T16:44:23.055Z,41.60
2018-08-28T16:49:27.370Z,41.00
2018-08-28T16:54:31.731Z,40.60
2018-08-28T16:59:36.077Z,39.90
2018-08-28T17:04:40.407Z,38.90
2018-08-28T17:09:44.983Z,37.70
2018-08-28T17:14:49.692Z,36.60
2018-08-28T17:19:54.042Z,34.90
2018-08-28T17:24:58.487Z,33.30
2018-08-28T17:30:02.932Z,32.20
2018-08-28T17:35:07.355Z,30.90
2018-08-28T17:40:11.717Z,29.20
2018-08-28T17:45:16.091Z,27.80
2018-08-28T17:50:20.695Z,26.50
2018-08-28T17:55:25.395Z,25.40
2018-08-28T18:00:29.796Z,24.60
2018-08-28T18:05:34.121Z,23.90
2018-08-28T18:10:38.515Z,23.20
2018-08-28T18:15:42.923Z,22.70
2018-08-28T18:20:47.163Z,22.30
2018-08-28T18:25:51.495Z,21.80
2018-08-28T18:30:55.767Z,21.40
2018-08-28T18:36:00.940Z,21.00
2018-08-28T18:41:05.493Z,20.70
2018-08-28T18:46:10.429Z,20.30
2018-08-28T18:51:14.825Z,20.00
2018-08-28T18:56:19.172Z,19.80
2018-08-28T19:01:23.503Z,19.60
2018-08-28T19:06:27.849Z,19.40
2018-08-28T19:11:32.168Z,19.10
2018-08-28T19:16:36.431Z,19.00
2018-08-28T19:21:40.808Z,18.80
2018-08-28T19:26:45.313Z,18.60
2018-08-28T19:31:49.703Z,18.50
2018-08-28T19:36:54.168Z,18.30
2018-08-28T19:41:58.527Z,18.20
2018-08-28T19:47:02.852Z,18.00
2018-08-28T19:52:07.207Z,17.80
2018-08-28T19:57:11.546Z,17.70
2018-08-28T20:02:15.803Z,17.50
2018-08-28T20:07:20.056Z,17.30
2018-08-28T20:12:24.389Z,17.10
2018-08-28T20:17:28.814Z,17.00
2018-08-28T20:22:33.239Z,16.90
2018-08-28T20:27:37.691Z,16.80
2018-08-28T20:32:42.135Z,16.60
2018-08-28T20:37:46.565Z,16.50
2018-08-28T20:42:51.054Z,16.40
2018-08-28T20:47:55.464Z,16.30
2018-08-28T20:52:59.809Z,16.20
2018-08-28T20:58:04.199Z,16.10
2018-08-28T21:03:08.517Z,16.00
2018-08-28T21:08:13.039Z,15.90
2018-08-28T21:13:17.463Z,15.80
2018-08-28T21:18:21.908Z,15.80
2018-08-28T21:23:26.358Z,15.70
2018-08-28T21:28:30.691Z,15.60
2018-08-28T21:33:35.053Z,15.60
2018-08-28T21:38:39.408Z,15.60
2018-08-28T21:43:43.815Z,15.60
2018-08-28T21:48:48.139Z,15.50
2018-08-28T21:53:52.420Z,15.50
2018-08-28T21:58:56.700Z,15.50
2018-08-28T22:04:01.781Z,15.50
2018-08-28T22:09:06.736Z,15.40
2018-08-28T22:14:11.775Z,15.40
2018-08-28T22:19:16.145Z,15.40
2018-08-28T22:24:20.459Z,15.40
2018-08-28T22:29:24.805Z,15.40
2018-08-28T22:34:29.118Z,15.40
2018-08-28T22:39:34.094Z,15.40
2018-08-28T22:44:38.441Z,15.30
2018-08-28T22:49:43.649Z,15.30
2018-08-28T22:54:47.933Z,15.20
2018-08-28T22:59:52.579Z,15.20
2018-08-28T23:04:58.353Z,15.20
2018-08-28T23:10:04.636Z,15.10
2018-08-28T23:15:09.219Z,15.10
2018-08-28T23:20:15.977Z,15.10
2018-08-28T23:25:20.218Z,15.00
2018-08-28T23:30:25.269Z,15.00
2018-08-28T23:35:29.626Z,15.00
2018-08-28T23:40:33.970Z,14.90
2018-08-28T23:45:38.298Z,14.90
2018-08-28T23:50:42.555Z,14.90
2018-08-28T23:55:47.282Z,14.80
